sensor_id;sensor_type;location;lat;lon;timestamp;temperature;humidity
5055;DHT22;13829;48.990;8.346;2022-07-04T00:01:47;21.80;91.00
5055;DHT22;13829;48.990;8.346;2022-07-04T00:04:16;21.80;91.00
5055;DHT22;13829;48.990;8.346;2022-07-04T00:06:43;21.80;91.10
5055;DHT22;13829;48.990;8.346;2022-07-04T00:09:10;21.80;91.10
5055;DHT22;13829;48.990;8.346;2022-07-04T00:11:37;21.70;91.10
5055;DHT22;13829;48.990;8.346;2022-07-04T00:14:04;21.50;91.10
5055;DHT22;13829;48.990;8.346;2022-07-04T00:16:31;21.50;91.30
5055;DHT22;13829;48.990;8.346;2022-07-04T00:18:59;21.50;91.20
5055;DHT22;13829;48.990;8.346;2022-07-04T00:21:28;21.50;91.10
5055;DHT22;13829;48.990;8.346;2022-07-04T00:23:55;21.50;91.10
5055;DHT22;13829;48.990;8.346;2022-07-04T00:26:22;21.50;91.00
5055;DHT22;13829;48.990;8.346;2022-07-04T00:28:49;21.40;91.10
5055;DHT22;13829;48.990;8.346;2022-07-04T00:31:16;21.40;91.20
5055;DHT22;13829;48.990;8.346;2022-07-04T00:33:43;21.30;91.10
5055;DHT22;13829;48.990;8.346;2022-07-04T00:36:10;21.30;91.00
5055;DHT22;13829;48.990;8.346;2022-07-04T00:38:39;21.30;91.00
5055;DHT22;13829;48.990;8.346;2022-07-04T00:41:06;21.30;91.20
5055;DHT22;13829;48.990;8.346;2022-07-04T00:43:33;21.30;91.20
5055;DHT22;13829;48.990;8.346;2022-07-04T00:46:03;21.20;91.20
5055;DHT22;13829;48.990;8.346;2022-07-04T00:48:31;21.20;91.60
5055;DHT22;13829;48.990;8.346;2022-07-04T00:50:58;21.10;91.50
5055;DHT22;13829;48.990;8.346;2022-07-04T00:53:26;21.10;91.60
5055;DHT22;13829;48.990;8.346;2022-07-04T00:55:55;21.10;91.70
5055;DHT22;13829;48.990;8.346;2022-07-04T00:58:23;21.10;91.80
5055;DHT22;13829;48.990;8.346;2022-07-04T01:00:50;21.10;92.00
5055;DHT22;13829;48.990;8.346;2022-07-04T01:03:17;21.10;91.90
5055;DHT22;13829;48.990;8.346;2022-07-04T01:05:44;21.00;92.10
5055;DHT22;13829;48.990;8.346;2022-07-04T01:08:12;20.90;92.20
5055;DHT22;13829;48.990;8.346;2022-07-04T01:10:40;20.90;92.30
5055;DHT22;13829;48.990;8.346;2022-07-04T01:13:11;20.80;92.50
5055;DHT22;13829;48.990;8.346;2022-07-04T01:15:45;20.80;92.80
5055;DHT22;13829;48.990;8.346;2022-07-04T01:18:13;20.80;92.80
5055;DHT22;13829;48.990;8.346;2022-07-04T01:20:41;20.70;92.90
5055;DHT22;13829;48.990;8.346;2022-07-04T01:23:08;20.70;93.00
5055;DHT22;13829;48.990;8.346;2022-07-04T01:25:36;20.70;92.60
5055;DHT22;13829;48.990;8.346;2022-07-04T01:28:04;20.70;92.80
5055;DHT22;13829;48.990;8.346;2022-07-04T01:30:32;20.60;92.80
5055;DHT22;13829;48.990;8.346;2022-07-04T01:32:59;20.50;92.80
5055;DHT22;13829;48.990;8.346;2022-07-04T01:35:26;20.40;93.10
5055;DHT22;13829;48.990;8.346;2022-07-04T01:37:55;20.40;92.80
5055;DHT22;13829;48.990;8.346;2022-07-04T01:40:23;20.30;92.90
5055;DHT22;13829;48.990;8.346;2022-07-04T01:42:50;20.20;93.10
5055;DHT22;13829;48.990;8.346;2022-07-04T01:45:17;20.20;93.20
5055;DHT22;13829;48.990;8.346;2022-07-04T01:47:44;20.20;93.20
5055;DHT22;13829;48.990;8.346;2022-07-04T01:50:11;20.10;93.40
5055;DHT22;13829;48.990;8.346;2022-07-04T01:52:39;20.10;93.70
5055;DHT22;13829;48.990;8.346;2022-07-04T01:55:09;20.00;93.30
5055;DHT22;13829;48.990;8.346;2022-07-04T01:57:37;20.00;93.30
5055;DHT22;13829;48.990;8.346;2022-07-04T02:00:06;20.00;92.80
5055;DHT22;13829;48.990;8.346;2022-07-04T02:02:52;20.00;92.90
5055;DHT22;13829;48.990;8.346;2022-07-04T02:05:20;20.00;92.80
5055;DHT22;13829;48.990;8.346;2022-07-04T02:07:47;20.10;92.90
5055;DHT22;13829;48.990;8.346;2022-07-04T02:10:17;20.00;93.20
5055;DHT22;13829;48.990;8.346;2022-07-04T02:12:44;20.00;93.50
5055;DHT22;13829;48.990;8.346;2022-07-04T02:15:31;20.00;94.00
5055;DHT22;13829;48.990;8.346;2022-07-04T02:18:01;20.00;94.40
5055;DHT22;13829;48.990;8.346;2022-07-04T02:20:28;19.90;94.00
5055;DHT22;13829;48.990;8.346;2022-07-04T02:22:56;19.90;94.10
5055;DHT22;13829;48.990;8.346;2022-07-04T02:25:25;19.90;93.80
5055;DHT22;13829;48.990;8.346;2022-07-04T02:27:52;19.90;93.60
5055;DHT22;13829;48.990;8.346;2022-07-04T02:30:19;19.90;92.80
5055;DHT22;13829;48.990;8.346;2022-07-04T02:32:46;19.90;92.90
5055;DHT22;13829;48.990;8.346;2022-07-04T02:35:13;19.80;93.00
5055;DHT22;13829;48.990;8.346;2022-07-04T02:37:41;19.80;93.60
5055;DHT22;13829;48.990;8.346;2022-07-04T02:40:09;19.70;92.90
5055;DHT22;13829;48.990;8.346;2022-07-04T02:42:38;19.80;93.50
5055;DHT22;13829;48.990;8.346;2022-07-04T02:45:06;19.80;93.70
5055;DHT22;13829;48.990;8.346;2022-07-04T02:47:34;19.80;94.90
5055;DHT22;13829;48.990;8.346;2022-07-04T02:50:01;19.80;95.10
5055;DHT22;13829;48.990;8.346;2022-07-04T02:52:28;19.80;95.10
5055;DHT22;13829;48.990;8.346;2022-07-04T02:54:56;19.70;95.60
5055;DHT22;13829;48.990;8.346;2022-07-04T02:57:23;19.60;95.50
5055;DHT22;13829;48.990;8.346;2022-07-04T02:59:52;19.50;94.60
5055;DHT22;13829;48.990;8.346;2022-07-04T03:02:19;19.50;95.80
5055;DHT22;13829;48.990;8.346;2022-07-04T03:04:46;19.40;95.40
5055;DHT22;13829;48.990;8.346;2022-07-04T03:07:13;19.40;95.50
5055;DHT22;13829;48.990;8.346;2022-07-04T03:09:40;19.40;96.30
5055;DHT22;13829;48.990;8.346;2022-07-04T03:12:08;19.30;94.90
5055;DHT22;13829;48.990;8.346;2022-07-04T03:14:35;19.40;94.10
5055;DHT22;13829;48.990;8.346;2022-07-04T03:17:04;19.40;94.10
5055;DHT22;13829;48.990;8.346;2022-07-04T03:19:31;19.50;95.10
5055;DHT22;13829;48.990;8.346;2022-07-04T03:21:57;19.60;95.10
5055;DHT22;13829;48.990;8.346;2022-07-04T03:24:25;19.60;95.60
5055;DHT22;13829;48.990;8.346;2022-07-04T03:26:52;19.50;96.30
5055;DHT22;13829;48.990;8.346;2022-07-04T03:29:18;19.50;96.70
5055;DHT22;13829;48.990;8.346;2022-07-04T03:31:45;19.40;97.10
5055;DHT22;13829;48.990;8.346;2022-07-04T03:34:14;19.30;97.20
5055;DHT22;13829;48.990;8.346;2022-07-04T03:36:41;19.20;97.60
5055;DHT22;13829;48.990;8.346;2022-07-04T03:39:08;19.10;97.70
5055;DHT22;13829;48.990;8.346;2022-07-04T03:41:35;18.90;97.70
5055;DHT22;13829;48.990;8.346;2022-07-04T03:44:02;18.80;98.20
5055;DHT22;13829;48.990;8.346;2022-07-04T03:46:29;18.80;98.90
5055;DHT22;13829;48.990;8.346;2022-07-04T03:48:56;18.60;99.00
5055;DHT22;13829;48.990;8.346;2022-07-04T03:51:25;18.70;99.80
5055;DHT22;13829;48.990;8.346;2022-07-04T03:53:52;18.70;99.60
5055;DHT22;13829;48.990;8.346;2022-07-04T03:56:19;18.70;99.90
5055;DHT22;13829;48.990;8.346;2022-07-04T03:58:46;18.70;99.90
5055;DHT22;13829;48.990;8.346;2022-07-04T04:01:14;18.70;99.90
5055;DHT22;13829;48.990;8.346;2022-07-04T04:03:42;18.60;99.90
5055;DHT22;13829;48.990;8.346;2022-07-04T04:06:29;18.60;99.90
5055;DHT22;13829;48.990;8.346;2022-07-04T04:08:56;18.60;99.90
5055;DHT22;13829;48.990;8.346;2022-07-04T04:11:23;18.60;99.90
5055;DHT22;13829;48.990;8.346;2022-07-04T04:13:50;18.50;99.90
5055;DHT22;13829;48.990;8.346;2022-07-04T04:16:17;18.50;99.90
5055;DHT22;13829;48.990;8.346;2022-07-04T04:18:44;18.50;99.90
5055;DHT22;13829;48.990;8.346;2022-07-04T04:21:11;18.50;99.90
5055;DHT22;13829;48.990;8.346;2022-07-04T04:23:39;18.50;99.90
5055;DHT22;13829;48.990;8.346;2022-07-04T04:26:06;18.70;99.90
5055;DHT22;13829;48.990;8.346;2022-07-04T04:28:33;18.70;99.90
5055;DHT22;13829;48.990;8.346;2022-07-04T04:31:00;18.70;99.90
5055;DHT22;13829;48.990;8.346;2022-07-04T04:33:27;18.70;99.90
5055;DHT22;13829;48.990;8.346;2022-07-04T04:35:54;18.70;99.90
5055;DHT22;13829;48.990;8.346;2022-07-04T04:38:21;18.80;99.90
5055;DHT22;13829;48.990;8.346;2022-07-04T04:40:50;18.80;99.90
5055;DHT22;13829;48.990;8.346;2022-07-04T04:43:17;18.90;99.90
5055;DHT22;13829;48.990;8.346;2022-07-04T04:45:44;19.00;99.90
5055;DHT22;13829;48.990;8.346;2022-07-04T04:48:11;19.00;99.90
5055;DHT22;13829;48.990;8.346;2022-07-04T04:50:38;19.10;98.80
5055;DHT22;13829;48.990;8.346;2022-07-04T04:53:05;19.10;98.20
5055;DHT22;13829;48.990;8.346;2022-07-04T04:55:32;19.30;96.40
5055;DHT22;13829;48.990;8.346;2022-07-04T04:58:00;19.40;95.70
5055;DHT22;13829;48.990;8.346;2022-07-04T05:00:27;19.50;95.10
5055;DHT22;13829;48.990;8.346;2022-07-04T05:02:54;19.60;94.70
5055;DHT22;13829;48.990;8.346;2022-07-04T05:05:21;19.70;94.60
5055;DHT22;13829;48.990;8.346;2022-07-04T05:07:48;19.80;94.30
5055;DHT22;13829;48.990;8.346;2022-07-04T05:10:16;19.80;94.10
5055;DHT22;13829;48.990;8.346;2022-07-04T05:12:43;19.90;93.90
5055;DHT22;13829;48.990;8.346;2022-07-04T05:15:12;20.10;94.60
5055;DHT22;13829;48.990;8.346;2022-07-04T05:17:39;20.20;94.20
5055;DHT22;13829;48.990;8.346;2022-07-04T05:20:07;20.40;94.70
5055;DHT22;13829;48.990;8.346;2022-07-04T05:22:35;20.50;94.20
5055;DHT22;13829;48.990;8.346;2022-07-04T05:25:02;20.60;94.20
5055;DHT22;13829;48.990;8.346;2022-07-04T05:27:29;20.80;93.60
5055;DHT22;13829;48.990;8.346;2022-07-04T05:29:57;20.90;92.40
5055;DHT22;13829;48.990;8.346;2022-07-04T05:32:25;21.10;92.60
5055;DHT22;13829;48.990;8.346;2022-07-04T05:34:53;21.40;93.40
5055;DHT22;13829;48.990;8.346;2022-07-04T05:37:20;21.40;91.50
5055;DHT22;13829;48.990;8.346;2022-07-04T05:39:47;21.40;91.40
5055;DHT22;13829;48.990;8.346;2022-07-04T05:42:15;21.80;91.20
5055;DHT22;13829;48.990;8.346;2022-07-04T05:44:42;21.80;90.30
5055;DHT22;13829;48.990;8.346;2022-07-04T05:47:10;21.60;90.40
5055;DHT22;13829;48.990;8.346;2022-07-04T05:49:38;21.40;90.70
5055;DHT22;13829;48.990;8.346;2022-07-04T05:52:05;21.50;90.50
5055;DHT22;13829;48.990;8.346;2022-07-04T05:54:32;21.50;90.80
5055;DHT22;13829;48.990;8.346;2022-07-04T05:56:59;21.50;90.50
5055;DHT22;13829;48.990;8.346;2022-07-04T05:59:26;21.50;90.60
5055;DHT22;13829;48.990;8.346;2022-07-04T06:01:54;21.50;90.60
5055;DHT22;13829;48.990;8.346;2022-07-04T06:04:21;21.50;90.40
5055;DHT22;13829;48.990;8.346;2022-07-04T06:06:50;21.50;90.80
5055;DHT22;13829;48.990;8.346;2022-07-04T06:09:17;21.40;90.40
5055;DHT22;13829;48.990;8.346;2022-07-04T06:11:44;21.40;90.50
5055;DHT22;13829;48.990;8.346;2022-07-04T06:14:12;21.50;90.70
5055;DHT22;13829;48.990;8.346;2022-07-04T06:16:39;21.60;90.80
5055;DHT22;13829;48.990;8.346;2022-07-04T06:19:06;21.80;90.50
5055;DHT22;13829;48.990;8.346;2022-07-04T06:21:33;22.10;89.70
5055;DHT22;13829;48.990;8.346;2022-07-04T06:24:01;22.10;89.00
5055;DHT22;13829;48.990;8.346;2022-07-04T06:26:28;22.30;89.00
5055;DHT22;13829;48.990;8.346;2022-07-04T06:28:56;22.80;88.40
5055;DHT22;13829;48.990;8.346;2022-07-04T06:31:23;23.90;86.00
5055;DHT22;13829;48.990;8.346;2022-07-04T06:33:50;24.70;83.50
5055;DHT22;13829;48.990;8.346;2022-07-04T06:36:35;24.90;82.00
5055;DHT22;13829;48.990;8.346;2022-07-04T06:39:03;26.20;78.90
5055;DHT22;13829;48.990;8.346;2022-07-04T06:41:30;26.70;75.50
5055;DHT22;13829;48.990;8.346;2022-07-04T06:43:57;26.60;74.90
5055;DHT22;13829;48.990;8.346;2022-07-04T06:46:24;26.70;74.50
5055;DHT22;13829;48.990;8.346;2022-07-04T06:48:51;27.40;75.30
5055;DHT22;13829;48.990;8.346;2022-07-04T06:51:18;28.30;71.40
5055;DHT22;13829;48.990;8.346;2022-07-04T06:53:45;28.80;69.40
5055;DHT22;13829;48.990;8.346;2022-07-04T06:56:13;28.40;69.40
5055;DHT22;13829;48.990;8.346;2022-07-04T06:58:40;28.40;67.80
5055;DHT22;13829;48.990;8.346;2022-07-04T07:01:07;28.30;68.50
5055;DHT22;13829;48.990;8.346;2022-07-04T07:03:35;28.10;68.90
5055;DHT22;13829;48.990;8.346;2022-07-04T07:06:02;28.50;67.40
5055;DHT22;13829;48.990;8.346;2022-07-04T07:08:29;28.60;67.90
5055;DHT22;13829;48.990;8.346;2022-07-04T07:10:57;28.50;66.80
5055;DHT22;13829;48.990;8.346;2022-07-04T07:13:39;29.60;66.80
5055;DHT22;13829;48.990;8.346;2022-07-04T07:16:07;29.80;66.40
5055;DHT22;13829;48.990;8.346;2022-07-04T07:18:34;30.40;64.00
5055;DHT22;13829;48.990;8.346;2022-07-04T07:21:01;31.20;65.10
5055;DHT22;13829;48.990;8.346;2022-07-04T07:23:30;32.00;62.00
5055;DHT22;13829;48.990;8.346;2022-07-04T07:25:57;32.20;59.50
5055;DHT22;13829;48.990;8.346;2022-07-04T07:28:24;32.50;58.20
5055;DHT22;13829;48.990;8.346;2022-07-04T07:30:52;31.90;57.80
5055;DHT22;13829;48.990;8.346;2022-07-04T07:33:19;31.30;60.20
5055;DHT22;13829;48.990;8.346;2022-07-04T07:35:46;31.20;61.10
5055;DHT22;13829;48.990;8.346;2022-07-04T07:38:13;31.60;58.10
5055;DHT22;13829;48.990;8.346;2022-07-04T07:40:40;32.20;57.90
5055;DHT22;13829;48.990;8.346;2022-07-04T07:43:07;31.40;57.40
5055;DHT22;13829;48.990;8.346;2022-07-04T07:45:34;31.30;58.20
5055;DHT22;13829;48.990;8.346;2022-07-04T07:48:03;32.10;59.00
5055;DHT22;13829;48.990;8.346;2022-07-04T07:50:30;31.30;57.10
5055;DHT22;13829;48.990;8.346;2022-07-04T07:52:57;31.50;58.90
5055;DHT22;13829;48.990;8.346;2022-07-04T07:55:25;32.10;57.00
5055;DHT22;13829;48.990;8.346;2022-07-04T07:57:52;33.20;55.30
5055;DHT22;13829;48.990;8.346;2022-07-04T08:00:19;33.00;56.40
5055;DHT22;13829;48.990;8.346;2022-07-04T08:02:46;33.40;56.60
5055;DHT22;13829;48.990;8.346;2022-07-04T08:05:32;34.60;55.60
5055;DHT22;13829;48.990;8.346;2022-07-04T08:08:00;34.00;52.70
5055;DHT22;13829;48.990;8.346;2022-07-04T08:10:27;34.40;53.40
5055;DHT22;13829;48.990;8.346;2022-07-04T08:12:54;34.90;53.30
5055;DHT22;13829;48.990;8.346;2022-07-04T08:15:21;34.30;52.00
5055;DHT22;13829;48.990;8.346;2022-07-04T08:17:48;33.60;54.70
5055;DHT22;13829;48.990;8.346;2022-07-04T08:20:15;32.90;52.40
5055;DHT22;13829;48.990;8.346;2022-07-04T08:22:43;33.50;54.60
5055;DHT22;13829;48.990;8.346;2022-07-04T08:25:11;33.90;57.10
5055;DHT22;13829;48.990;8.346;2022-07-04T08:27:39;34.50;51.70
5055;DHT22;13829;48.990;8.346;2022-07-04T08:30:07;34.30;54.10
5055;DHT22;13829;48.990;8.346;2022-07-04T08:32:35;34.80;56.10
5055;DHT22;13829;48.990;8.346;2022-07-04T08:35:02;34.30;52.30
5055;DHT22;13829;48.990;8.346;2022-07-04T08:37:30;34.30;52.00
5055;DHT22;13829;48.990;8.346;2022-07-04T08:39:58;34.00;54.10
5055;DHT22;13829;48.990;8.346;2022-07-04T08:42:30;34.00;54.10
5055;DHT22;13829;48.990;8.346;2022-07-04T08:45:03;32.70;53.50
5055;DHT22;13829;48.990;8.346;2022-07-04T08:47:33;32.40;55.00
5055;DHT22;13829;48.990;8.346;2022-07-04T08:50:08;31.50;54.20
5055;DHT22;13829;48.990;8.346;2022-07-04T08:52:38;31.30;57.80
5055;DHT22;13829;48.990;8.346;2022-07-04T08:55:09;31.40;56.00
5055;DHT22;13829;48.990;8.346;2022-07-04T08:57:56;31.10;57.00
5055;DHT22;13829;48.990;8.346;2022-07-04T09:00:41;31.10;57.90
5055;DHT22;13829;48.990;8.346;2022-07-04T09:03:10;31.00;58.00
5055;DHT22;13829;48.990;8.346;2022-07-04T09:05:37;30.50;57.80
5055;DHT22;13829;48.990;8.346;2022-07-04T09:08:05;30.00;57.60
5055;DHT22;13829;48.990;8.346;2022-07-04T09:10:34;28.80;58.50
5055;DHT22;13829;48.990;8.346;2022-07-04T09:13:01;28.50;60.80
5055;DHT22;13829;48.990;8.346;2022-07-04T09:15:29;28.70;61.50
5055;DHT22;13829;48.990;8.346;2022-07-04T09:17:57;29.20;65.10
5055;DHT22;13829;48.990;8.346;2022-07-04T09:20:25;29.90;63.30
5055;DHT22;13829;48.990;8.346;2022-07-04T09:22:54;30.50;62.60
5055;DHT22;13829;48.990;8.346;2022-07-04T09:25:22;30.80;61.50
5055;DHT22;13829;48.990;8.346;2022-07-04T09:27:53;31.10;58.50
5055;DHT22;13829;48.990;8.346;2022-07-04T09:30:23;31.40;59.90
5055;DHT22;13829;48.990;8.346;2022-07-04T09:32:52;31.30;59.10
5055;DHT22;13829;48.990;8.346;2022-07-04T09:35:26;31.20;57.30
5055;DHT22;13829;48.990;8.346;2022-07-04T09:37:56;31.30;57.50
5055;DHT22;13829;48.990;8.346;2022-07-04T09:40:26;30.90;58.00
5055;DHT22;13829;48.990;8.346;2022-07-04T09:42:56;30.90;58.70
5055;DHT22;13829;48.990;8.346;2022-07-04T09:45:26;30.80;59.40
5055;DHT22;13829;48.990;8.346;2022-07-04T09:47:55;30.40;58.00
5055;DHT22;13829;48.990;8.346;2022-07-04T09:50:25;30.00;59.50
5055;DHT22;13829;48.990;8.346;2022-07-04T09:52:55;30.10;61.50
5055;DHT22;13829;48.990;8.346;2022-07-04T09:55:25;30.10;60.90
5055;DHT22;13829;48.990;8.346;2022-07-04T09:57:56;30.10;58.10
5055;DHT22;13829;48.990;8.346;2022-07-04T10:00:26;29.60;58.10
5055;DHT22;13829;48.990;8.346;2022-07-04T10:02:56;29.10;61.80
5055;DHT22;13829;48.990;8.346;2022-07-04T10:05:26;28.70;60.50
5055;DHT22;13829;48.990;8.346;2022-07-04T10:07:55;28.70;60.70
5055;DHT22;13829;48.990;8.346;2022-07-04T10:10:27;28.50;61.00
5055;DHT22;13829;48.990;8.346;2022-07-04T10:12:59;28.40;61.90
5055;DHT22;13829;48.990;8.346;2022-07-04T10:15:28;28.50;63.10
5055;DHT22;13829;48.990;8.346;2022-07-04T10:17:55;28.60;62.20
5055;DHT22;13829;48.990;8.346;2022-07-04T10:20:23;28.50;62.20
5055;DHT22;13829;48.990;8.346;2022-07-04T10:22:50;28.40;62.00
5055;DHT22;13829;48.990;8.346;2022-07-04T10:25:18;28.40;62.70
5055;DHT22;13829;48.990;8.346;2022-07-04T10:27:45;28.40;62.50
5055;DHT22;13829;48.990;8.346;2022-07-04T10:30:17;28.30;62.20
5055;DHT22;13829;48.990;8.346;2022-07-04T10:32:49;28.30;62.80
5055;DHT22;13829;48.990;8.346;2022-07-04T10:35:17;28.20;63.60
5055;DHT22;13829;48.990;8.346;2022-07-04T10:38:14;28.10;63.40
5055;DHT22;13829;48.990;8.346;2022-07-04T10:40:47;28.00;62.00
5055;DHT22;13829;48.990;8.346;2022-07-04T10:43:37;27.60;62.30
5055;DHT22;13829;48.990;8.346;2022-07-04T10:49:26;27.30;63.60
5055;DHT22;13829;48.990;8.346;2022-07-04T10:51:57;27.30;62.30
5055;DHT22;13829;48.990;8.346;2022-07-04T10:54:36;27.20;62.30
5055;DHT22;13829;48.990;8.346;2022-07-04T10:57:12;27.10;64.40
5055;DHT22;13829;48.990;8.346;2022-07-04T10:59:42;27.10;64.80
5055;DHT22;13829;48.990;8.346;2022-07-04T11:02:30;27.10;63.10
5055;DHT22;13829;48.990;8.346;2022-07-04T11:04:59;26.90;65.40
5055;DHT22;13829;48.990;8.346;2022-07-04T11:07:57;27.00;62.40
5055;DHT22;13829;48.990;8.346;2022-07-04T11:10:26;27.00;63.30
5055;DHT22;13829;48.990;8.346;2022-07-04T11:13:21;27.10;65.90
5055;DHT22;13829;48.990;8.346;2022-07-04T11:16:06;27.40;66.60
5055;DHT22;13829;48.990;8.346;2022-07-04T11:18:42;27.40;65.20
5055;DHT22;13829;48.990;8.346;2022-07-04T11:21:21;27.60;64.90
5055;DHT22;13829;48.990;8.346;2022-07-04T11:23:51;27.50;66.60
5055;DHT22;13829;48.990;8.346;2022-07-04T11:26:22;27.50;62.50
5055;DHT22;13829;48.990;8.346;2022-07-04T11:28:51;27.40;62.30
5055;DHT22;13829;48.990;8.346;2022-07-04T11:31:18;27.10;63.40
5055;DHT22;13829;48.990;8.346;2022-07-04T11:33:47;27.00;65.00
5055;DHT22;13829;48.990;8.346;2022-07-04T11:36:16;27.00;65.20
5055;DHT22;13829;48.990;8.346;2022-07-04T11:38:51;27.10;66.70
5055;DHT22;13829;48.990;8.346;2022-07-04T11:41:22;27.10;65.70
5055;DHT22;13829;48.990;8.346;2022-07-04T11:44:10;27.20;64.50
5055;DHT22;13829;48.990;8.346;2022-07-04T11:47:12;27.10;63.90
5055;DHT22;13829;48.990;8.346;2022-07-04T11:49:44;26.90;63.90
5055;DHT22;13829;48.990;8.346;2022-07-04T11:52:14;27.00;64.50
5055;DHT22;13829;48.990;8.346;2022-07-04T11:54:44;26.90;65.60
5055;DHT22;13829;48.990;8.346;2022-07-04T11:57:15;26.90;66.20
5055;DHT22;13829;48.990;8.346;2022-07-04T11:59:52;26.90;64.80
5055;DHT22;13829;48.990;8.346;2022-07-04T12:02:21;26.90;66.00
5055;DHT22;13829;48.990;8.346;2022-07-04T12:04:49;26.90;65.50
5055;DHT22;13829;48.990;8.346;2022-07-04T12:07:17;27.00;65.40
5055;DHT22;13829;48.990;8.346;2022-07-04T12:09:46;27.00;66.40
5055;DHT22;13829;48.990;8.346;2022-07-04T12:12:14;27.00;64.90
5055;DHT22;13829;48.990;8.346;2022-07-04T12:14:58;27.00;64.90
5055;DHT22;13829;48.990;8.346;2022-07-04T12:17:36;26.70;63.80
5055;DHT22;13829;48.990;8.346;2022-07-04T12:20:11;26.90;66.30
5055;DHT22;13829;48.990;8.346;2022-07-04T12:22:41;26.80;63.80
5055;DHT22;13829;48.990;8.346;2022-07-04T12:25:21;26.60;64.40
5055;DHT22;13829;48.990;8.346;2022-07-04T12:27:52;26.70;65.80
5055;DHT22;13829;48.990;8.346;2022-07-04T12:30:21;26.70;65.80
5055;DHT22;13829;48.990;8.346;2022-07-04T12:32:50;26.70;65.30
5055;DHT22;13829;48.990;8.346;2022-07-04T12:35:39;26.80;67.20
5055;DHT22;13829;48.990;8.346;2022-07-04T12:38:10;26.90;65.10
5055;DHT22;13829;48.990;8.346;2022-07-04T12:40:53;26.90;65.20
5055;DHT22;13829;48.990;8.346;2022-07-04T12:43:23;26.80;64.20
5055;DHT22;13829;48.990;8.346;2022-07-04T12:45:53;26.70;66.30
5055;DHT22;13829;48.990;8.346;2022-07-04T12:48:27;26.80;65.40
5055;DHT22;13829;48.990;8.346;2022-07-04T12:51:12;26.70;65.20
5055;DHT22;13829;48.990;8.346;2022-07-04T12:53:42;26.70;65.30
5055;DHT22;13829;48.990;8.346;2022-07-04T12:56:27;26.70;65.20
5055;DHT22;13829;48.990;8.346;2022-07-04T12:58:57;26.80;65.70
5055;DHT22;13829;48.990;8.346;2022-07-04T13:01:25;26.90;66.60
5055;DHT22;13829;48.990;8.346;2022-07-04T13:03:52;27.00;65.90
5055;DHT22;13829;48.990;8.346;2022-07-04T13:06:21;26.90;64.90
5055;DHT22;13829;48.990;8.346;2022-07-04T13:08:48;27.10;65.10
5055;DHT22;13829;48.990;8.346;2022-07-04T13:11:15;27.10;64.30
5055;DHT22;13829;48.990;8.346;2022-07-04T13:14:00;27.00;62.70
5055;DHT22;13829;48.990;8.346;2022-07-04T13:16:27;26.90;64.00
5055;DHT22;13829;48.990;8.346;2022-07-04T13:18:54;27.00;65.50
5055;DHT22;13829;48.990;8.346;2022-07-04T13:21:23;26.90;65.80
5055;DHT22;13829;48.990;8.346;2022-07-04T13:23:50;26.80;65.60
5055;DHT22;13829;48.990;8.346;2022-07-04T13:26:18;26.80;66.30
5055;DHT22;13829;48.990;8.346;2022-07-04T13:28:45;26.80;65.40
5055;DHT22;13829;48.990;8.346;2022-07-04T13:31:13;26.80;65.60
5055;DHT22;13829;48.990;8.346;2022-07-04T13:33:41;26.80;65.90
5055;DHT22;13829;48.990;8.346;2022-07-04T13:36:08;26.80;66.70
5055;DHT22;13829;48.990;8.346;2022-07-04T13:38:36;26.80;65.90
5055;DHT22;13829;48.990;8.346;2022-07-04T13:41:03;26.80;66.90
5055;DHT22;13829;48.990;8.346;2022-07-04T13:43:30;26.70;66.20
5055;DHT22;13829;48.990;8.346;2022-07-04T13:45:57;26.60;66.10
5055;DHT22;13829;48.990;8.346;2022-07-04T13:48:24;26.80;65.70
5055;DHT22;13829;48.990;8.346;2022-07-04T13:50:51;26.80;66.90
5055;DHT22;13829;48.990;8.346;2022-07-04T13:53:18;26.90;67.10
5055;DHT22;13829;48.990;8.346;2022-07-04T13:55:47;26.90;66.30
5055;DHT22;13829;48.990;8.346;2022-07-04T13:58:14;26.90;66.60
5055;DHT22;13829;48.990;8.346;2022-07-04T14:00:42;26.80;65.10
5055;DHT22;13829;48.990;8.346;2022-07-04T14:03:10;26.80;66.90
5055;DHT22;13829;48.990;8.346;2022-07-04T14:05:41;26.90;66.60
5055;DHT22;13829;48.990;8.346;2022-07-04T14:08:09;26.80;65.10
5055;DHT22;13829;48.990;8.346;2022-07-04T14:10:36;26.80;67.60
5055;DHT22;13829;48.990;8.346;2022-07-04T14:13:04;26.90;64.90
5055;DHT22;13829;48.990;8.346;2022-07-04T14:15:31;26.90;64.60
5055;DHT22;13829;48.990;8.346;2022-07-04T14:17:58;26.90;66.70
5055;DHT22;13829;48.990;8.346;2022-07-04T14:20:25;26.90;67.20
5055;DHT22;13829;48.990;8.346;2022-07-04T14:22:52;26.90;67.50
5055;DHT22;13829;48.990;8.346;2022-07-04T14:25:19;27.10;68.00
5055;DHT22;13829;48.990;8.346;2022-07-04T14:27:47;27.10;66.30
5055;DHT22;13829;48.990;8.346;2022-07-04T14:30:15;27.20;66.50
5055;DHT22;13829;48.990;8.346;2022-07-04T14:32:42;27.30;66.40
5055;DHT22;13829;48.990;8.346;2022-07-04T14:35:09;27.30;66.60
5055;DHT22;13829;48.990;8.346;2022-07-04T14:37:36;27.30;65.40
5055;DHT22;13829;48.990;8.346;2022-07-04T14:40:03;27.20;67.00
5055;DHT22;13829;48.990;8.346;2022-07-04T14:42:31;27.10;66.40
5055;DHT22;13829;48.990;8.346;2022-07-04T14:44:58;27.10;64.80
5055;DHT22;13829;48.990;8.346;2022-07-04T14:47:26;27.00;66.00
5055;DHT22;13829;48.990;8.346;2022-07-04T14:49:53;27.20;67.10
5055;DHT22;13829;48.990;8.346;2022-07-04T14:52:20;27.20;66.30
5055;DHT22;13829;48.990;8.346;2022-07-04T14:54:47;27.20;63.40
5055;DHT22;13829;48.990;8.346;2022-07-04T14:57:14;27.10;62.70
5055;DHT22;13829;48.990;8.346;2022-07-04T14:59:41;27.00;64.10
5055;DHT22;13829;48.990;8.346;2022-07-04T15:02:08;27.00;65.00
5055;DHT22;13829;48.990;8.346;2022-07-04T15:04:36;26.90;65.10
5055;DHT22;13829;48.990;8.346;2022-07-04T15:07:03;26.90;63.10
5055;DHT22;13829;48.990;8.346;2022-07-04T15:09:30;26.80;63.00
5055;DHT22;13829;48.990;8.346;2022-07-04T15:11:57;26.70;64.10
5055;DHT22;13829;48.990;8.346;2022-07-04T15:14:24;26.60;62.80
5055;DHT22;13829;48.990;8.346;2022-07-04T15:16:51;26.70;65.70
5055;DHT22;13829;48.990;8.346;2022-07-04T15:19:18;26.80;63.20
5055;DHT22;13829;48.990;8.346;2022-07-04T15:21:47;26.60;63.50
5055;DHT22;13829;48.990;8.346;2022-07-04T15:24:45;26.70;65.40
5055;DHT22;13829;48.990;8.346;2022-07-04T15:27:13;26.70;63.80
5055;DHT22;13829;48.990;8.346;2022-07-04T15:29:40;26.70;65.10
5055;DHT22;13829;48.990;8.346;2022-07-04T15:32:07;26.90;65.70
5055;DHT22;13829;48.990;8.346;2022-07-04T15:34:34;27.00;66.10
5055;DHT22;13829;48.990;8.346;2022-07-04T15:37:02;27.10;64.30
5055;DHT22;13829;48.990;8.346;2022-07-04T15:39:29;27.20;64.20
5055;DHT22;13829;48.990;8.346;2022-07-04T15:41:56;27.30;64.90
5055;DHT22;13829;48.990;8.346;2022-07-04T15:44:23;27.40;64.00
5055;DHT22;13829;48.990;8.346;2022-07-04T15:46:50;27.40;63.10
5055;DHT22;13829;48.990;8.346;2022-07-04T15:49:36;27.20;64.50
5055;DHT22;13829;48.990;8.346;2022-07-04T15:52:05;27.00;63.30
5055;DHT22;13829;48.990;8.346;2022-07-04T15:54:33;27.00;63.20
5055;DHT22;13829;48.990;8.346;2022-07-04T15:57:01;26.90;64.30
5055;DHT22;13829;48.990;8.346;2022-07-04T15:59:29;26.80;65.50
5055;DHT22;13829;48.990;8.346;2022-07-04T16:01:56;26.80;64.20